Terminal Aerodrome Forecast
Issued by NWS

Current Version | Previous Version | Text Only | Print | Product List | Glossary On
Versions: 1 2 3 4 5 6 7 8 9 10 11 12 13 14
000
FTUS46 KHNX 272320
TAFVIS
TAF
KVIS 272320Z 2800/2824 31010KT P6SM SCT040 BKN090
      TEMPO 2804/2808 -RA BKN040
     FM280800 VRB04KT 5SM -RA BR OVC040
     FM281800 VRB04KT P6SM -SHRA SCT025 BKN040 PROB30 2818/2824 4SM
      TSRAPL BKN025CB=

USA.gov is the U.S. government's official web portal to all federal, state and local government web resources and services.